Terminal Aerodrome Forecast
Issued by NWS Jackson, KY

Home | Current Version | Previous Version | Text Only | Print | Product List | Glossary On
Versions: 1 2 3 4 5 6 7 8 9 10 11 12 13 14 15
155
FTUS43 KJKL 300736 AAB
TAFJKL
TAF AMD
KJKL 300736Z 3008/3106 VRB04KT P6SM VCTS BKN040CB
     FM301100 VRB04KT P6SM SCT100=

USA.gov is the U.S. government's official web portal to all federal, state and local government web resources and services.